createdAt,value
2017-07-05T00:00:28.587Z,24.32
2017-07-05T00:02:52.806Z,24.13
2017-07-05T00:05:17.081Z,24.24
2017-07-05T00:07:41.261Z,24.16
2017-07-05T00:10:05.495Z,24.1
2017-07-05T00:12:29.699Z,24.21
2017-07-05T00:14:53.898Z,24.25
2017-07-05T00:17:18.150Z,24.16
2017-07-05T00:19:42.385Z,24.09
2017-07-05T00:21:18.179Z,24.16
2017-07-05T00:23:42.456Z,24.09
2017-07-05T00:26:06.652Z,24.26
2017-07-05T00:28:30.852Z,24.24
2017-07-05T00:30:55.059Z,24.22
2017-07-05T00:33:19.350Z,24.1
2017-07-05T00:35:43.553Z,24.1
2017-07-05T00:38:07.766Z,24.01
2017-07-05T00:39:43.543Z,24.03
2017-07-05T00:42:07.787Z,23.96
2017-07-05T00:44:32.407Z,23.86
2017-07-05T00:46:56.607Z,24
2017-07-05T00:49:20.751Z,23.86
2017-07-05T00:51:44.991Z,23.86
2017-07-05T00:54:09.167Z,23.81
2017-07-05T00:56:33.342Z,23.69
2017-07-05T00:58:57.522Z,23.63
2017-07-05T01:01:13.262Z,23.73
2017-07-05T01:03:37.420Z,23.69
2017-07-05T01:06:01.590Z,23.48
2017-07-05T01:08:02.978Z,23.62
2017-07-05T01:10:27.201Z,23.48
2017-07-05T01:12:51.350Z,23.52
2017-07-05T01:15:15.496Z,23.49
2017-07-05T01:17:31.252Z,23.55
2017-07-05T01:19:55.393Z,23.44
2017-07-05T01:22:11.090Z,23.29
2017-07-05T01:24:35.263Z,23.42
2017-07-05T01:26:59.429Z,23.36
2017-07-05T01:29:23.601Z,23.25
2017-07-05T01:31:33.513Z,23.39
2017-07-05T01:33:57.721Z,23.1
2017-07-05T01:36:13.462Z,23.25
2017-07-05T01:38:37.632Z,23.04
2017-07-05T01:40:53.326Z,22.99
2017-07-05T01:43:09.016Z,22.91
2017-07-05T01:45:33.142Z,23.11
2017-07-05T01:47:57.247Z,23.33
2017-07-05T01:49:33.052Z,23.32
2017-07-05T01:51:57.253Z,23.44
2017-07-05T01:54:21.433Z,23.34
2017-07-05T01:56:45.800Z,23.42
2017-07-05T01:59:09.973Z,23.23
2017-07-05T02:01:34.107Z,23.08
2017-07-05T02:03:58.307Z,23.23
2017-07-05T02:06:22.429Z,23.23
2017-07-05T02:08:46.755Z,23.29
2017-07-05T02:11:10.881Z,23.23
2017-07-05T02:13:26.544Z,23.11
2017-07-05T02:15:50.698Z,23.1
2017-07-05T02:18:14.779Z,23.04
2017-07-05T02:20:30.426Z,23.06
2017-07-05T02:22:54.511Z,23.01
2017-07-05T02:25:18.665Z,22.92
2017-07-05T02:27:42.761Z,22.89
2017-07-05T02:30:06.879Z,22.74
2017-07-05T02:32:31.021Z,22.77
2017-07-05T02:34:55.172Z,22.8
2017-07-05T02:37:19.256Z,22.8
2017-07-05T02:39:43.509Z,22.78
2017-07-05T02:42:07.615Z,22.78
2017-07-05T02:44:31.716Z,22.76
2017-07-05T02:46:55.821Z,22.78
2017-07-05T02:48:57.187Z,22.83
2017-07-05T02:51:21.366Z,22.88
2017-07-05T02:53:45.493Z,22.8
2017-07-05T02:56:09.609Z,22.65
2017-07-05T02:58:33.691Z,22.68
2017-07-05T03:00:57.799Z,22.65
2017-07-05T03:03:21.911Z,22.49
2017-07-05T03:05:45.961Z,22.63
2017-07-05T03:08:10.008Z,22.47
2017-07-05T03:10:34.054Z,22.56
2017-07-05T03:12:58.134Z,22.46
2017-07-05T03:15:08.019Z,22.23
2017-07-05T03:17:32.134Z,22.4
2017-07-05T03:19:42.012Z,22.4
2017-07-05T03:21:51.947Z,22.43
2017-07-05T03:23:53.815Z,22.36
2017-07-05T03:26:17.939Z,22.38
2017-07-05T03:28:42.057Z,22.55
2017-07-05T03:30:57.768Z,22.51
2017-07-05T03:33:21.816Z,22.46
2017-07-05T03:35:45.907Z,22.51
2017-07-05T03:38:10.003Z,22.61
2017-07-05T03:40:34.109Z,22.55
2017-07-05T03:42:58.173Z,22.59
2017-07-05T03:45:22.193Z,22.63
2017-07-05T03:47:46.266Z,22.71
2017-07-05T03:50:10.286Z,22.67
2017-07-05T03:52:34.347Z,22.7
2017-07-05T03:54:58.479Z,22.71
2017-07-05T03:57:22.524Z,22.86
2017-07-05T03:59:32.412Z,22.91
2017-07-05T04:01:56.499Z,22.88
2017-07-05T04:04:20.689Z,22.84
2017-07-05T04:06:44.709Z,22.78
2017-07-05T04:09:08.754Z,22.86
2017-07-05T04:11:32.908Z,22.92
2017-07-05T04:13:57.035Z,23.07
2017-07-05T04:16:21.124Z,23.34
2017-07-05T04:18:45.252Z,23.34
2017-07-05T04:21:09.364Z,23.33
2017-07-05T04:23:33.503Z,23.34
2017-07-05T04:25:57.673Z,23.94
2017-07-05T04:28:21.823Z,25.81
2017-07-05T04:30:46.021Z,26.97
2017-07-05T04:33:10.331Z,29.47
2017-07-05T04:35:34.753Z,31.78
2017-07-05T04:37:59.365Z,32.3
2017-07-05T04:40:24.099Z,33.54
2017-07-05T04:42:48.940Z,35.18
2017-07-05T04:45:13.969Z,36.36
2017-07-05T04:47:39.121Z,37.88
2017-07-05T04:50:04.404Z,38.69
2017-07-05T04:52:29.879Z,38.51
2017-07-05T04:54:55.362Z,40.55
2017-07-05T04:57:21.087Z,40.88
2017-07-05T04:59:46.883Z,41.84
2017-07-05T05:02:04.207Z,42.44
2017-07-05T05:04:30.154Z,43.7
2017-07-05T05:06:32.484Z,44.42
2017-07-05T05:08:58.633Z,43.89
2017-07-05T05:11:25.915Z,45.11
2017-07-05T05:13:52.114Z,46.02
2017-07-05T05:16:02.643Z,45.59
2017-07-05T05:18:05.075Z,47.09
2017-07-05T05:20:16.268Z,47.38
2017-07-05T05:22:28.417Z,46.82
2017-07-05T05:24:55.033Z,48.11
2017-07-05T05:27:21.828Z,48.85
2017-07-05T05:29:48.571Z,48.8
2017-07-05T05:32:15.321Z,49.6
2017-07-05T05:34:42.117Z,50.16
2017-07-05T05:37:08.930Z,51.3
2017-07-05T05:39:35.814Z,50.74
2017-07-05T05:42:02.804Z,51.27
2017-07-05T05:44:29.797Z,50.99
2017-07-05T05:46:57.024Z,51.06
2017-07-05T05:49:24.055Z,51.25
2017-07-05T05:51:51.221Z,51.16
2017-07-05T05:54:18.486Z,52.51
2017-07-05T05:56:45.735Z,52.35
2017-07-05T05:59:12.954Z,52.62
2017-07-05T06:01:41.484Z,54.23
2017-07-05T06:04:08.892Z,55.89
2017-07-05T06:06:36.247Z,54.07
2017-07-05T06:09:03.750Z,54.13
2017-07-05T06:11:31.457Z,55.4
2017-07-05T06:13:58.904Z,56.51
2017-07-05T06:16:26.391Z,57.66
2017-07-05T06:18:54.034Z,57.03
2017-07-05T06:21:21.571Z,58.53
2017-07-05T06:23:49.249Z,57.15
2017-07-05T06:26:16.952Z,56.25
2017-07-05T06:28:44.653Z,57.36
2017-07-05T06:31:12.412Z,55.58
2017-07-05T06:33:40.256Z,57.16
2017-07-05T06:36:08.143Z,59.83
2017-07-05T06:38:35.969Z,56.2
2017-07-05T06:41:03.914Z,51.68
2017-07-05T06:43:31.951Z,48.27
2017-07-05T06:46:00.050Z,49.02
2017-07-05T06:48:28.142Z,48.04
2017-07-05T06:50:56.129Z,48.7
2017-07-05T06:53:24.020Z,46.7
2017-07-05T06:55:09.215Z,47.57
2017-07-05T06:57:36.918Z,47.6
2017-07-05T07:00:04.400Z,47.26
2017-07-05T07:02:23.098Z,46.62
2017-07-05T07:04:50.468Z,45.51
2017-07-05T07:07:17.523Z,43.95
2017-07-05T07:09:44.418Z,43.89
2017-07-05T07:12:12.157Z,44.21
2017-07-05T07:14:38.940Z,44.4
2017-07-05T07:16:57.046Z,45.33
2017-07-05T07:19:23.682Z,46.66
2017-07-05T07:21:50.251Z,45.43
2017-07-05T07:24:16.776Z,45.08
2017-07-05T07:26:43.173Z,45.59
2017-07-05T07:29:09.610Z,47.23
2017-07-05T07:31:36.027Z,44
2017-07-05T07:34:02.404Z,44.34
2017-07-05T07:36:28.766Z,45.16
2017-07-05T07:38:55.129Z,45.48
2017-07-05T07:41:21.502Z,45.06
2017-07-05T07:43:48.005Z,45.17
2017-07-05T07:46:14.383Z,44.99
2017-07-05T07:48:25.536Z,44.82
2017-07-05T07:50:52.002Z,45.4
2017-07-05T07:52:54.053Z,45.55
2017-07-05T07:54:56.137Z,44.45
2017-07-05T07:57:22.646Z,43.12
2017-07-05T07:59:49.114Z,42.99
2017-07-05T08:02:15.574Z,42.77
2017-07-05T08:04:42.011Z,43.44
2017-07-05T08:07:08.435Z,43.18
2017-07-05T08:09:34.895Z,41.68
2017-07-05T08:11:36.877Z,41.63
2017-07-05T08:13:46.186Z,42.15
2017-07-05T08:16:12.602Z,42.56
2017-07-05T08:18:38.964Z,42.28
2017-07-05T08:21:05.442Z,42.87
2017-07-05T08:23:16.184Z,44.94
2017-07-05T08:25:34.642Z,44.95
2017-07-05T08:27:43.941Z,44.4
2017-07-05T08:30:10.359Z,45.83
2017-07-05T08:32:36.845Z,45.11
2017-07-05T08:35:03.359Z,46.04
2017-07-05T08:37:29.863Z,46.13
2017-07-05T08:39:56.403Z,47.18
2017-07-05T08:42:22.931Z,46.62
2017-07-05T08:44:50.386Z,46.02
2017-07-05T08:47:16.921Z,45.21
2017-07-05T08:49:35.225Z,46.43
2017-07-05T08:52:01.748Z,46.93
2017-07-05T08:54:19.713Z,46.68
2017-07-05T08:56:46.258Z,45.61
2017-07-05T08:59:12.793Z,45.85
2017-07-05T09:01:39.295Z,45.47
2017-07-05T09:03:57.204Z,46.25
2017-07-05T09:06:23.648Z,45.58
2017-07-05T09:08:50.119Z,46.27
2017-07-05T09:11:16.542Z,46.44
2017-07-05T09:13:27.231Z,47.47
2017-07-05T09:15:45.137Z,47.79
2017-07-05T09:17:54.473Z,47.35
2017-07-05T09:20:20.923Z,46.92
2017-07-05T09:22:47.349Z,47.34
2017-07-05T09:25:13.828Z,46.9
2017-07-05T09:27:40.324Z,46.5
2017-07-05T09:29:58.219Z,47.45
2017-07-05T09:32:24.705Z,47.19
2017-07-05T09:34:42.585Z,46.25
2017-07-05T09:37:09.036Z,45.42
2017-07-05T09:39:26.897Z,45.71
2017-07-05T09:41:53.300Z,45.69
2017-07-05T09:43:55.744Z,44.53
2017-07-05T09:46:06.364Z,45.85
2017-07-05T09:48:32.729Z,45.21
2017-07-05T09:50:59.030Z,44.79
2017-07-05T09:53:25.342Z,44.41
2017-07-05T09:55:51.619Z,44.21
2017-07-05T09:58:17.828Z,43.81
2017-07-05T10:00:44.049Z,44.22
2017-07-05T10:03:10.271Z,44.62
2017-07-05T10:05:36.453Z,43.44
2017-07-05T10:08:02.628Z,43.11
2017-07-05T10:10:28.783Z,42.86
2017-07-05T10:12:54.949Z,40.76
2017-07-05T10:15:21.017Z,41.27
2017-07-05T10:17:23.385Z,40.81
2017-07-05T10:19:40.889Z,40.49
2017-07-05T10:22:06.891Z,39.22
2017-07-05T10:24:24.270Z,38.96
2017-07-05T10:26:50.142Z,38.7
2017-07-05T10:29:15.977Z,39.33
2017-07-05T10:31:41.807Z,39.56
2017-07-05T10:34:07.617Z,39.38
2017-07-05T10:36:33.408Z,38.57
2017-07-05T10:38:59.203Z,38.39
2017-07-05T10:41:24.958Z,37.83
2017-07-05T10:43:42.174Z,37.97
2017-07-05T10:46:07.890Z,38.46
2017-07-05T10:48:33.584Z,37.9
2017-07-05T10:50:59.247Z,38.32
2017-07-05T10:53:16.411Z,38.73
2017-07-05T10:55:18.853Z,38.54
2017-07-05T10:57:44.558Z,37.68
2017-07-05T11:00:10.186Z,37.14
2017-07-05T11:02:27.314Z,36.89
2017-07-05T11:04:52.941Z,37.01
2017-07-05T11:07:18.519Z,37.03
2017-07-05T11:09:44.098Z,36.41
2017-07-05T11:12:09.675Z,36.78
2017-07-05T11:14:35.227Z,35.9
2017-07-05T11:17:00.772Z,36
2017-07-05T11:19:26.279Z,36.38
2017-07-05T11:21:51.749Z,35.41
2017-07-05T11:24:08.687Z,35.45
2017-07-05T11:26:25.638Z,35.39
2017-07-05T11:28:51.081Z,35.9
2017-07-05T11:31:07.962Z,35.22
2017-07-05T11:33:33.321Z,36.06
2017-07-05T11:35:58.739Z,36.01
2017-07-05T11:38:24.159Z,35.38
2017-07-05T11:40:49.573Z,35.68
2017-07-05T11:43:14.953Z,35.35
2017-07-05T11:45:40.338Z,35.56
2017-07-05T11:48:05.714Z,35.52
2017-07-05T11:50:31.058Z,35.98
2017-07-05T11:52:47.893Z,36.11
2017-07-05T11:55:04.747Z,36.29
2017-07-05T11:57:30.125Z,36.45
2017-07-05T11:59:55.494Z,36.6
2017-07-05T12:02:20.852Z,36.03
2017-07-05T12:04:46.247Z,36.22
2017-07-05T12:07:11.649Z,36.25
2017-07-05T12:09:37.061Z,36.18
2017-07-05T12:12:02.456Z,35.75
2017-07-05T12:14:27.854Z,36.41
2017-07-05T12:16:53.273Z,36.28
2017-07-05T12:19:18.711Z,36.16
2017-07-05T12:21:44.413Z,36.48
2017-07-05T12:24:01.303Z,35.91
2017-07-05T12:26:26.758Z,36.03
2017-07-05T12:28:52.226Z,36.06
2017-07-05T12:31:17.825Z,36.44
2017-07-05T12:33:43.330Z,36.57
2017-07-05T12:36:08.666Z,36.96
2017-07-05T12:38:34.173Z,36.14
2017-07-05T12:40:45.038Z,35.75
2017-07-05T12:43:10.525Z,36.17
2017-07-05T12:45:35.996Z,35.59
2017-07-05T12:47:12.404Z,35.45
2017-07-05T12:49:37.907Z,35.61
2017-07-05T12:51:54.842Z,35.63
2017-07-05T12:54:20.248Z,35.39
2017-07-05T12:56:37.279Z,35.5
2017-07-05T12:59:02.543Z,35.53
2017-07-05T13:01:27.843Z,34.98
2017-07-05T13:03:53.165Z,35.12
2017-07-05T13:06:19.059Z,35.34
2017-07-05T13:08:44.051Z,35.64
2017-07-05T13:10:46.332Z,35.76
2017-07-05T13:13:11.648Z,35.79
2017-07-05T13:15:37.077Z,36
2017-07-05T13:18:02.375Z,35.64
2017-07-05T13:20:27.716Z,35.34
2017-07-05T13:22:44.588Z,35.22
2017-07-05T13:25:10.043Z,35.93
2017-07-05T13:27:35.721Z,36
2017-07-05T13:30:01.038Z,36.05
2017-07-05T13:32:28.984Z,35.94
2017-07-05T13:34:54.425Z,35.68
2017-07-05T13:36:56.847Z,35.74
2017-07-05T13:39:22.246Z,35.6
2017-07-05T13:41:47.604Z,35.47
2017-07-05T13:44:12.961Z,35.78
2017-07-05T13:46:38.276Z,36.14
2017-07-05T13:49:03.611Z,35.64
2017-07-05T13:51:29.210Z,34.76
2017-07-05T13:53:54.413Z,34.86
2017-07-05T13:56:19.748Z,35.31
2017-07-05T13:58:45.088Z,35.23
2017-07-05T14:01:10.489Z,35.05
2017-07-05T14:03:35.834Z,35.69
2017-07-05T14:06:01.242Z,35.93
2017-07-05T14:08:26.768Z,35.9
2017-07-05T14:10:52.147Z,36.2
2017-07-05T14:13:17.495Z,36.31
2017-07-05T14:15:42.836Z,36.11
2017-07-05T14:18:08.218Z,35.63
2017-07-05T14:20:33.731Z,36.36
2017-07-05T14:22:59.273Z,36.13
2017-07-05T14:25:24.530Z,35.97
2017-07-05T14:27:49.894Z,36.05
2017-07-05T14:30:15.301Z,36.47
2017-07-05T14:32:40.807Z,36.32
2017-07-05T14:35:06.291Z,35.97
2017-07-05T14:37:31.765Z,36.25
2017-07-05T14:39:57.126Z,36.05
2017-07-05T14:42:22.557Z,36.26
2017-07-05T14:44:39.494Z,36.45
2017-07-05T14:47:04.964Z,36.18
2017-07-05T14:49:30.449Z,36.16
2017-07-05T14:51:55.689Z,35.94
2017-07-05T14:54:21.035Z,35.75
2017-07-05T14:56:46.382Z,35.41
2017-07-05T14:59:11.670Z,35.57
2017-07-05T15:00:48.047Z,35.47
2017-07-05T15:03:04.934Z,35.2
2017-07-05T15:05:30.283Z,35.37
2017-07-05T15:07:55.596Z,35.49
2017-07-05T15:10:12.428Z,35.39
2017-07-05T15:12:37.709Z,35.53
2017-07-05T15:15:03.059Z,35.87
2017-07-05T15:17:29.089Z,36.26
2017-07-05T15:19:54.399Z,36.7
2017-07-05T15:22:19.696Z,36.25
2017-07-05T15:24:45.079Z,35.54
2017-07-05T15:27:10.365Z,35.91
2017-07-05T15:29:35.734Z,36.2
2017-07-05T15:32:01.205Z,35.81
2017-07-05T15:34:26.446Z,35.75
2017-07-05T15:36:51.729Z,35.69
2017-07-05T15:39:17.171Z,35.78
2017-07-05T15:41:42.522Z,35.91
2017-07-05T15:44:07.831Z,35.66
2017-07-05T15:46:33.242Z,35.38
2017-07-05T15:48:58.525Z,35.22
2017-07-05T15:51:23.834Z,35.38
2017-07-05T15:53:40.655Z,35.25
2017-07-05T15:56:05.959Z,35.04
2017-07-05T15:58:31.253Z,35
2017-07-05T16:00:56.573Z,35.2
2017-07-05T16:03:21.849Z,35.01
2017-07-05T16:05:47.154Z,35.38
2017-07-05T16:07:57.447Z,34.86
2017-07-05T16:10:22.762Z,34.83
2017-07-05T16:12:39.542Z,34.91
2017-07-05T16:15:04.796Z,34.69
2017-07-05T16:17:30.051Z,34.69
2017-07-05T16:19:46.771Z,35.01
2017-07-05T16:22:12.039Z,34.56
2017-07-05T16:24:37.270Z,34.6
2017-07-05T16:27:02.504Z,34.4
2017-07-05T16:29:27.735Z,34.33
2017-07-05T16:31:52.931Z,34.19
2017-07-05T16:33:55.128Z,34.38
2017-07-05T16:36:20.411Z,34.93
2017-07-05T16:38:45.610Z,34.47
2017-07-05T16:40:21.997Z,34.35
2017-07-05T16:42:47.246Z,34.09
2017-07-05T16:45:12.458Z,34.14
2017-07-05T16:47:37.689Z,34.02
2017-07-05T16:50:02.838Z,34.18
2017-07-05T16:52:28.027Z,34.02
2017-07-05T16:54:53.230Z,34.13
2017-07-05T16:57:18.611Z,34.24
2017-07-05T16:59:29.363Z,34.02
2017-07-05T17:01:54.597Z,34.1
2017-07-05T17:04:19.754Z,34.24
2017-07-05T17:06:44.869Z,34.19
2017-07-05T17:09:01.531Z,34.16
2017-07-05T17:11:26.686Z,34.11
2017-07-05T17:13:43.339Z,34
2017-07-05T17:16:08.493Z,34
2017-07-05T17:18:33.628Z,33.91
2017-07-05T17:20:58.794Z,33.89
2017-07-05T17:23:15.450Z,33.89
2017-07-05T17:25:40.687Z,34.1
2017-07-05T17:28:05.831Z,34.22
2017-07-05T17:30:30.957Z,34.28
2017-07-05T17:32:56.759Z,34.19
2017-07-05T17:35:21.509Z,34.03
2017-07-05T17:37:46.610Z,34.02
2017-07-05T17:39:48.944Z,34.02
2017-07-05T17:41:50.442Z,33.94
2017-07-05T17:44:15.649Z,34.13
2017-07-05T17:46:17.791Z,34.1
2017-07-05T17:48:42.956Z,33.85
2017-07-05T17:51:08.123Z,33.87
2017-07-05T17:53:33.203Z,33.72
2017-07-05T17:55:49.856Z,33.95
2017-07-05T17:58:14.881Z,33.89
2017-07-05T18:00:39.915Z,33.44
2017-07-05T18:03:04.980Z,32.9
2017-07-05T18:05:30.046Z,32.91
2017-07-05T18:07:55.119Z,33.09
2017-07-05T18:10:20.207Z,32.97
2017-07-05T18:12:45.278Z,33.17
2017-07-05T18:14:47.395Z,33.17
2017-07-05T18:17:12.459Z,33.13
2017-07-05T18:19:37.495Z,33.31
2017-07-05T18:21:45.582Z,33.29
2017-07-05T18:24:10.632Z,33.17
2017-07-05T18:26:27.167Z,33.16
2017-07-05T18:28:43.692Z,33.2
2017-07-05T18:31:00.251Z,33.13
2017-07-05T18:33:25.263Z,32.95
2017-07-05T18:35:50.257Z,32.98
2017-07-05T18:38:15.303Z,32.93
2017-07-05T18:40:40.644Z,32.76
2017-07-05T18:43:05.862Z,32.59
2017-07-05T18:45:30.834Z,32.57
2017-07-05T18:47:55.863Z,32.64
2017-07-05T18:50:20.870Z,32.67
2017-07-05T18:52:45.896Z,32.71
2017-07-05T18:55:02.366Z,32.51
2017-07-05T18:57:18.875Z,32.56
2017-07-05T18:59:44.126Z,32.57
2017-07-05T19:02:00.827Z,32.46
2017-07-05T19:04:02.455Z,32.51
2017-07-05T19:06:27.482Z,32.19
2017-07-05T19:08:52.476Z,32.17
2017-07-05T19:11:17.457Z,32.15
2017-07-05T19:13:42.344Z,32.09
2017-07-05T19:16:07.330Z,31.98
2017-07-05T19:18:23.841Z,32.02
2017-07-05T19:20:48.825Z,31.82
2017-07-05T19:23:13.812Z,31.74
2017-07-05T19:25:30.296Z,31.48
2017-07-05T19:27:55.273Z,31.45
2017-07-05T19:30:20.236Z,31.45
2017-07-05T19:32:45.190Z,31.32
2017-07-05T19:35:10.129Z,31.32
2017-07-05T19:37:35.099Z,31.35
2017-07-05T19:39:51.527Z,31.29
2017-07-05T19:42:16.460Z,31.2
2017-07-05T19:44:41.613Z,31.18
2017-07-05T19:46:34.988Z,31.23
2017-07-05T19:48:59.974Z,31.17
2017-07-05T19:51:24.875Z,31.13
2017-07-05T19:53:35.640Z,31.14
2017-07-05T19:56:00.546Z,31.04
2017-07-05T19:58:26.270Z,30.96
2017-07-05T20:00:51.203Z,30.93
2017-07-05T20:03:07.604Z,30.78
2017-07-05T20:05:32.421Z,30.8
2017-07-05T20:07:57.323Z,30.81
2017-07-05T20:10:22.156Z,30.74
2017-07-05T20:12:46.979Z,30.74
2017-07-05T20:15:11.832Z,30.59
2017-07-05T20:17:36.661Z,30.29
2017-07-05T20:20:01.464Z,30.14
2017-07-05T20:22:26.325Z,29.99
2017-07-05T20:24:51.438Z,30.06
2017-07-05T20:27:16.251Z,29.76
2017-07-05T20:29:41.024Z,29.77
2017-07-05T20:32:05.832Z,29.83
2017-07-05T20:34:30.552Z,29.84
2017-07-05T20:36:55.270Z,29.79
2017-07-05T20:39:20.071Z,29.64
2017-07-05T20:41:44.840Z,29.68
2017-07-05T20:44:09.599Z,29.58
2017-07-05T20:46:34.422Z,29.64
2017-07-05T20:48:59.229Z,29.53
2017-07-05T20:51:23.845Z,29.39
2017-07-05T20:53:40.270Z,29.37
2017-07-05T20:56:05.052Z,29.27
2017-07-05T20:58:29.754Z,29.09
2017-07-05T21:00:31.277Z,28.96
2017-07-05T21:02:55.985Z,29.1
2017-07-05T21:05:20.706Z,29.07
2017-07-05T21:07:36.934Z,29.03
2017-07-05T21:09:38.568Z,29.05
2017-07-05T21:12:03.993Z,28.93
2017-07-05T21:14:28.697Z,28.86
2017-07-05T21:16:53.345Z,28.83
2017-07-05T21:19:03.422Z,28.8
2017-07-05T21:21:13.506Z,28.59
2017-07-05T21:23:38.233Z,28.56
2017-07-05T21:26:02.829Z,28.77
2017-07-05T21:28:27.476Z,28.56
2017-07-05T21:30:52.097Z,28.53
2017-07-05T21:33:02.200Z,28.52
2017-07-05T21:35:26.846Z,28.46
2017-07-05T21:37:51.470Z,28.52
2017-07-05T21:40:16.121Z,28.4
2017-07-05T21:42:40.793Z,28.38
2017-07-05T21:45:05.422Z,28.12
2017-07-05T21:47:30.052Z,28.22
2017-07-05T21:49:54.658Z,28.33
2017-07-05T21:52:19.277Z,28.31
2017-07-05T21:54:43.960Z,28.16
2017-07-05T21:57:08.567Z,28.19
2017-07-05T21:59:33.188Z,27.98
2017-07-05T22:01:57.815Z,28.08
2017-07-05T22:04:22.409Z,28.18
2017-07-05T22:06:47.021Z,28.12
2017-07-05T22:08:22.871Z,28.15
2017-07-05T22:10:47.548Z,28.15
2017-07-05T22:13:12.177Z,28.06
2017-07-05T22:15:36.797Z,28.15
2017-07-05T22:17:52.938Z,28
2017-07-05T22:20:09.048Z,27.79
2017-07-05T22:22:25.150Z,27.83
2017-07-05T22:24:49.751Z,27.73
2017-07-05T22:27:14.342Z,27.79
2017-07-05T22:29:38.971Z,27.86
2017-07-05T22:31:40.970Z,27.73
2017-07-05T22:34:05.616Z,27.67
2017-07-05T22:36:30.215Z,27.57
2017-07-05T22:38:54.731Z,27.48
2017-07-05T22:41:19.312Z,27.29
2017-07-05T22:43:43.868Z,27.29
2017-07-05T22:45:59.952Z,27.23
2017-07-05T22:48:24.495Z,27.1
2017-07-05T22:50:34.547Z,27.22
2017-07-05T22:52:50.647Z,27.11
2017-07-05T22:54:58.216Z,27.04
2017-07-05T22:57:14.275Z,26.98
2017-07-05T22:59:38.808Z,26.96
2017-07-05T23:02:03.326Z,26.91
2017-07-05T23:04:27.836Z,26.98
2017-07-05T23:06:52.342Z,27.01
2017-07-05T23:09:16.860Z,26.92
2017-07-05T23:11:24.407Z,26.73
2017-07-05T23:13:48.856Z,26.64
2017-07-05T23:16:13.326Z,26.6
2017-07-05T23:18:37.788Z,26.52
2017-07-05T23:21:02.263Z,26.59
2017-07-05T23:23:26.744Z,26.52
2017-07-05T23:25:51.164Z,26.39
2017-07-05T23:28:15.643Z,26.39
2017-07-05T23:30:31.660Z,26.41
2017-07-05T23:32:56.136Z,26.55
2017-07-05T23:35:20.596Z,26.52
2017-07-05T23:37:45.035Z,26.6
2017-07-05T23:40:09.502Z,26.51
2017-07-05T23:42:33.973Z,26.44
2017-07-05T23:44:44.011Z,26.34
2017-07-05T23:46:37.001Z,26.36
2017-07-05T23:49:01.521Z,26.31
2017-07-05T23:51:25.999Z,26.06
2017-07-05T23:53:33.543Z,25.81
2017-07-05T23:55:57.992Z,26.04
2017-07-05T23:58:22.440Z,26.1
